North Bend, Ohio
Current Conditions -  °F | °C
As of 9:52 PM on Monday 20 Oct 2014 (Local Time) from KCVG Reporting Station
Few Clouds Few Clouds  
Wind Chill: 57°   Ceiling: Unl
Heat Index: 57°   Visibility: 10mi
Dew Point: 50°   Wind: 6mph
Humidity: 77%   Direction: 220°SW
Pressure: 29.9"   Gusts: NA
Location:  39.15°N, 84.75°W
Report Text: KCVG 210152Z 22005KT 10SM FEW060 14/10 A2990 RMK AO2 SLP121 T01390100
Loading
Personal Weather Stations






























Interactive Weather Map
Tropical Storm Tracking
New forecast layout! Learn more

10-Day Weather Forecast

Advertisements
Track Severe Weather on mobile